Ana Sayfa
METAR-TAF:

METAR-TAF

Havaalanları :

Havana, Küba

Enlem: 22-59N, Boylam: 082-24W, yükseklik: 59 m

Güncel hava durumu gözlemi

Rapor saat 23:55 UTC de 38 dakika önce yapıldı.
Rüzgar güney/güneydoğudan 1 kt
Sıcaklık 26°C
Nem 89%
Basınç 1014 hPa
Görüş mesafesi: 9000 m
4000 ft yükseklikte parçalı çok bulutlu

METAR: MUHA 202355Z 16001KT 9000 BKN040 26/24 Q1014

Saat: 20:33 (00:33 UTC)

Tahmin

Rapor saat 23:00 UTC de 1 saat ve 33 dakika önce yapıldı.
Ayın 21'si saat 00 UTC'den ayın 21'si saat 24 UTC'ye kadar geçerli Tahmin
Rüzgar güneydan 5 kt
Görüş mesafesi: 9000 m
3000 ft yükseklikte parçalı bulutlu

TAF: MUHA 202300Z 2100/2124 18005KT 9000 SCT030

4.000'den fazla havaalanı için hava durumu gözlemleri ve tahminleri (METAR ve TAF raporları).

Kullanılabilir istasyonlar harita üzerinde sarı ve kırmızı noktalarla gösterilir.

İstasyonun adını görmek için fareyi noktanın üzerinde gezdirin.

Sonrasında hava gözlem ve tahminlerini görmek için tıklayın.

Haritayı değiştirmek için: yaklaştırmak için siyah artı işaretli yeşil düğmeye ve uzaklaştırmak için de eksi işaretli düğmeye hızla tıklayın; bitişik haritalar için yeşil okları kullanın.


METAR-TAF: